sensor_id;sensor_type;location;lat;lon;timestamp;P1;durP1;ratioP1;P2;durP2;ratioP2
35084;SDS011;21267;51.032;6.998;2024-03-23T00:55:57;27.88;;;10.75;;
35084;SDS011;21267;51.032;6.998;2024-03-23T01:00:33;28.77;;;11.48;;
35084;SDS011;21267;51.032;6.998;2024-03-23T01:03:02;30.65;;;12.80;;
35084;SDS011;21267;51.032;6.998;2024-03-23T01:05:28;33.13;;;11.88;;
35084;SDS011;21267;51.032;6.998;2024-03-23T01:07:54;15.30;;;7.57;;
35084;SDS011;21267;51.032;6.998;2024-03-23T01:10:20;19.75;;;7.68;;
35084;SDS011;21267;51.032;6.998;2024-03-23T01:12:46;14.80;;;5.63;;
35084;SDS011;21267;51.032;6.998;2024-03-23T01:15:15;14.40;;;4.85;;
35084;SDS011;21267;51.032;6.998;2024-03-23T01:17:40;13.25;;;5.53;;
35084;SDS011;21267;51.032;6.998;2024-03-23T01:20:06;13.50;;;4.72;;
35084;SDS011;21267;51.032;6.998;2024-03-23T01:22:32;11.43;;;4.53;;
35084;SDS011;21267;51.032;6.998;2024-03-23T01:24:58;12.40;;;4.90;;
35084;SDS011;21267;51.032;6.998;2024-03-23T01:27:24;14.13;;;4.45;;
35084;SDS011;21267;51.032;6.998;2024-03-23T01:29:50;12.45;;;4.07;;
35084;SDS011;21267;51.032;6.998;2024-03-23T01:32:17;12.80;;;4.35;;
35084;SDS011;21267;51.032;6.998;2024-03-23T01:34:44;13.95;;;4.43;;
35084;SDS011;21267;51.032;6.998;2024-03-23T01:37:10;6.45;;;3.42;;
35084;SDS011;21267;51.032;6.998;2024-03-23T01:39:36;7.28;;;3.60;;
35084;SDS011;21267;51.032;6.998;2024-03-23T01:42:01;10.15;;;3.33;;
35084;SDS011;21267;51.032;6.998;2024-03-23T01:44:27;10.90;;;3.33;;
35084;SDS011;21267;51.032;6.998;2024-03-23T01:46:53;11.40;;;3.13;;
35084;SDS011;21267;51.032;6.998;2024-03-23T01:49:19;9.43;;;3.88;;
35084;SDS011;21267;51.032;6.998;2024-03-23T01:51:46;12.98;;;3.53;;
35084;SDS011;21267;51.032;6.998;2024-03-23T01:54:11;12.10;;;3.40;;
35084;SDS011;21267;51.032;6.998;2024-03-23T01:56:37;10.50;;;3.35;;
35084;SDS011;21267;51.032;6.998;2024-03-23T01:59:06;8.65;;;2.90;;
35084;SDS011;21267;51.032;6.998;2024-03-23T02:01:32;7.32;;;3.08;;
35084;SDS011;21267;51.032;6.998;2024-03-23T02:04:01;12.35;;;3.85;;
35084;SDS011;21267;51.032;6.998;2024-03-23T02:06:27;10.32;;;3.50;;
35084;SDS011;21267;51.032;6.998;2024-03-23T02:08:53;12.50;;;3.15;;
35084;SDS011;21267;51.032;6.998;2024-03-23T02:11:24;12.35;;;3.83;;
35084;SDS011;21267;51.032;6.998;2024-03-23T02:14:12;10.17;;;2.63;;
35084;SDS011;21267;51.032;6.998;2024-03-23T02:16:38;11.20;;;3.47;;
35084;SDS011;21267;51.032;6.998;2024-03-23T02:19:18;9.63;;;3.20;;
35084;SDS011;21267;51.032;6.998;2024-03-23T02:21:44;13.18;;;3.45;;
35084;SDS011;21267;51.032;6.998;2024-03-23T02:24:12;15.45;;;4.28;;
35084;SDS011;21267;51.032;6.998;2024-03-23T02:26:52;13.75;;;3.63;;
35084;SDS011;21267;51.032;6.998;2024-03-23T02:29:18;16.38;;;3.55;;
35084;SDS011;21267;51.032;6.998;2024-03-23T02:32:00;7.53;;;3.05;;
35084;SDS011;21267;51.032;6.998;2024-03-23T02:34:26;11.18;;;3.90;;
35084;SDS011;21267;51.032;6.998;2024-03-23T02:37:11;9.88;;;2.80;;
35084;SDS011;21267;51.032;6.998;2024-03-23T02:39:37;9.23;;;2.95;;
35084;SDS011;21267;51.032;6.998;2024-03-23T02:42:17;9.35;;;3.03;;
35084;SDS011;21267;51.032;6.998;2024-03-23T02:44:44;11.60;;;2.95;;
35084;SDS011;21267;51.032;6.998;2024-03-23T02:47:10;8.93;;;3.38;;
35084;SDS011;21267;51.032;6.998;2024-03-23T02:49:43;13.60;;;3.85;;
35084;SDS011;21267;51.032;6.998;2024-03-23T02:52:08;8.15;;;3.30;;
35084;SDS011;21267;51.032;6.998;2024-03-23T02:54:34;8.10;;;3.90;;
35084;SDS011;21267;51.032;6.998;2024-03-23T02:57:14;9.05;;;3.30;;
35084;SDS011;21267;51.032;6.998;2024-03-23T02:59:40;9.43;;;3.45;;
35084;SDS011;21267;51.032;6.998;2024-03-23T03:02:06;12.95;;;3.33;;
35084;SDS011;21267;51.032;6.998;2024-03-23T03:04:47;10.75;;;3.20;;
35084;SDS011;21267;51.032;6.998;2024-03-23T03:07:13;9.20;;;2.92;;
35084;SDS011;21267;51.032;6.998;2024-03-23T03:09:53;10.40;;;2.50;;
35084;SDS011;21267;51.032;6.998;2024-03-23T03:12:19;11.43;;;2.90;;
35084;SDS011;21267;51.032;6.998;2024-03-23T03:14:44;10.77;;;2.58;;
35084;SDS011;21267;51.032;6.998;2024-03-23T03:17:25;12.90;;;2.95;;
35084;SDS011;21267;51.032;6.998;2024-03-23T03:19:52;8.13;;;2.92;;
35084;SDS011;21267;51.032;6.998;2024-03-23T03:22:35;8.25;;;2.67;;
35084;SDS011;21267;51.032;6.998;2024-03-23T03:25:01;8.13;;;2.70;;
35084;SDS011;21267;51.032;6.998;2024-03-23T03:27:42;6.55;;;2.78;;
35084;SDS011;21267;51.032;6.998;2024-03-23T03:30:11;9.82;;;2.35;;
35084;SDS011;21267;51.032;6.998;2024-03-23T03:32:41;11.25;;;2.85;;
35084;SDS011;21267;51.032;6.998;2024-03-23T03:35:15;9.00;;;2.55;;
35084;SDS011;21267;51.032;6.998;2024-03-23T03:40:17;9.73;;;2.60;;
35084;SDS011;21267;51.032;6.998;2024-03-23T03:42:43;7.50;;;2.58;;
35084;SDS011;21267;51.032;6.998;2024-03-23T03:45:08;10.27;;;3.08;;
35084;SDS011;21267;51.032;6.998;2024-03-23T03:47:34;13.65;;;2.67;;
35084;SDS011;21267;51.032;6.998;2024-03-23T03:50:08;8.55;;;2.15;;
35084;SDS011;21267;51.032;6.998;2024-03-23T03:52:36;14.13;;;2.47;;
35084;SDS011;21267;51.032;6.998;2024-03-23T03:55:23;12.77;;;2.83;;
35084;SDS011;21267;51.032;6.998;2024-03-23T03:57:52;14.43;;;3.17;;
35084;SDS011;21267;51.032;6.998;2024-03-23T04:00:33;11.20;;;3.17;;
35084;SDS011;21267;51.032;6.998;2024-03-23T04:02:58;16.05;;;3.63;;
35084;SDS011;21267;51.032;6.998;2024-03-23T04:05:35;10.77;;;3.20;;
35084;SDS011;21267;51.032;6.998;2024-03-23T04:08:01;13.52;;;3.88;;
35084;SDS011;21267;51.032;6.998;2024-03-23T04:10:27;12.40;;;3.88;;
35084;SDS011;21267;51.032;6.998;2024-03-23T04:13:07;12.77;;;4.13;;
35084;SDS011;21267;51.032;6.998;2024-03-23T04:15:33;10.57;;;2.20;;
35084;SDS011;21267;51.032;6.998;2024-03-23T04:17:59;12.07;;;3.50;;
35084;SDS011;21267;51.032;6.998;2024-03-23T04:20:25;11.82;;;2.65;;
35084;SDS011;21267;51.032;6.998;2024-03-23T04:22:50;14.77;;;3.55;;
35084;SDS011;21267;51.032;6.998;2024-03-23T04:25:16;9.55;;;2.95;;
35084;SDS011;21267;51.032;6.998;2024-03-23T04:27:42;13.75;;;3.03;;
35084;SDS011;21267;51.032;6.998;2024-03-23T04:30:08;15.57;;;3.00;;
35084;SDS011;21267;51.032;6.998;2024-03-23T04:32:39;9.68;;;2.83;;
35084;SDS011;21267;51.032;6.998;2024-03-23T04:35:05;12.20;;;2.72;;
35084;SDS011;21267;51.032;6.998;2024-03-23T04:37:32;8.15;;;2.47;;
35084;SDS011;21267;51.032;6.998;2024-03-23T04:40:07;13.52;;;2.20;;
35084;SDS011;21267;51.032;6.998;2024-03-23T04:42:34;12.23;;;2.83;;
35084;SDS011;21267;51.032;6.998;2024-03-23T04:45:00;11.93;;;2.60;;
35084;SDS011;21267;51.032;6.998;2024-03-23T04:47:40;12.88;;;2.67;;
35084;SDS011;21267;51.032;6.998;2024-03-23T04:50:06;11.85;;;2.80;;
35084;SDS011;21267;51.032;6.998;2024-03-23T04:52:32;8.27;;;1.73;;
35084;SDS011;21267;51.032;6.998;2024-03-23T04:55:06;9.73;;;1.90;;
35084;SDS011;21267;51.032;6.998;2024-03-23T04:57:32;12.10;;;2.70;;
35084;SDS011;21267;51.032;6.998;2024-03-23T04:59:57;17.35;;;3.13;;
35084;SDS011;21267;51.032;6.998;2024-03-23T05:02:38;12.98;;;2.83;;
35084;SDS011;21267;51.032;6.998;2024-03-23T05:05:03;11.65;;;2.67;;
35084;SDS011;21267;51.032;6.998;2024-03-23T05:07:47;9.10;;;2.55;;
35084;SDS011;21267;51.032;6.998;2024-03-23T05:10:15;8.80;;;2.45;;
35084;SDS011;21267;51.032;6.998;2024-03-23T05:12:56;6.22;;;3.22;;
35084;SDS011;21267;51.032;6.998;2024-03-23T05:15:22;9.23;;;2.50;;
35084;SDS011;21267;51.032;6.998;2024-03-23T05:17:48;14.43;;;3.83;;
35084;SDS011;21267;51.032;6.998;2024-03-23T05:20:28;12.25;;;2.35;;
35084;SDS011;21267;51.032;6.998;2024-03-23T05:22:57;12.43;;;3.13;;
35084;SDS011;21267;51.032;6.998;2024-03-23T05:25:39;10.23;;;2.58;;
35084;SDS011;21267;51.032;6.998;2024-03-23T05:28:04;14.52;;;2.50;;
35084;SDS011;21267;51.032;6.998;2024-03-23T05:30:30;7.82;;;1.88;;
35084;SDS011;21267;51.032;6.998;2024-03-23T05:33:03;11.93;;;3.10;;
35084;SDS011;21267;51.032;6.998;2024-03-23T05:35:29;11.45;;;3.30;;
35084;SDS011;21267;51.032;6.998;2024-03-23T05:37:54;11.02;;;2.50;;
35084;SDS011;21267;51.032;6.998;2024-03-23T05:40:35;13.05;;;2.78;;
35084;SDS011;21267;51.032;6.998;2024-03-23T05:43:02;12.68;;;2.33;;
35084;SDS011;21267;51.032;6.998;2024-03-23T05:45:43;11.23;;;2.90;;
35084;SDS011;21267;51.032;6.998;2024-03-23T05:48:09;14.38;;;4.00;;
35084;SDS011;21267;51.032;6.998;2024-03-23T05:50:35;11.57;;;3.58;;
35084;SDS011;21267;51.032;6.998;2024-03-23T05:53:16;6.88;;;2.58;;
35084;SDS011;21267;51.032;6.998;2024-03-23T05:55:42;8.90;;;3.08;;
35084;SDS011;21267;51.032;6.998;2024-03-23T05:58:22;10.63;;;3.78;;
35084;SDS011;21267;51.032;6.998;2024-03-23T06:00:48;13.00;;;3.20;;
35084;SDS011;21267;51.032;6.998;2024-03-23T06:03:13;10.75;;;3.95;;
35084;SDS011;21267;51.032;6.998;2024-03-23T06:05:54;12.73;;;3.92;;
35084;SDS011;21267;51.032;6.998;2024-03-23T06:08:20;14.35;;;4.13;;
35084;SDS011;21267;51.032;6.998;2024-03-23T06:11:01;13.38;;;3.75;;
35084;SDS011;21267;51.032;6.998;2024-03-23T06:13:26;10.43;;;3.30;;
35084;SDS011;21267;51.032;6.998;2024-03-23T06:15:55;8.73;;;2.67;;
35084;SDS011;21267;51.032;6.998;2024-03-23T06:18:36;7.53;;;3.05;;
35084;SDS011;21267;51.032;6.998;2024-03-23T06:21:01;15.60;;;4.30;;
35084;SDS011;21267;51.032;6.998;2024-03-23T06:23:42;13.38;;;4.03;;
35084;SDS011;21267;51.032;6.998;2024-03-23T06:26:08;14.38;;;3.58;;
35084;SDS011;21267;51.032;6.998;2024-03-23T06:28:34;9.40;;;2.88;;
35084;SDS011;21267;51.032;6.998;2024-03-23T06:30:59;10.18;;;3.53;;
35084;SDS011;21267;51.032;6.998;2024-03-23T06:33:25;15.23;;;4.10;;
35084;SDS011;21267;51.032;6.998;2024-03-23T06:35:51;8.45;;;2.50;;
35084;SDS011;21267;51.032;6.998;2024-03-23T06:38:17;18.77;;;3.80;;
35084;SDS011;21267;51.032;6.998;2024-03-23T06:40:58;5.93;;;2.63;;
35084;SDS011;21267;51.032;6.998;2024-03-23T06:43:24;11.10;;;3.22;;
35084;SDS011;21267;51.032;6.998;2024-03-23T06:45:53;7.43;;;3.25;;
35084;SDS011;21267;51.032;6.998;2024-03-23T06:48:20;11.50;;;3.97;;
35084;SDS011;21267;51.032;6.998;2024-03-23T06:51:00;9.63;;;2.85;;
35084;SDS011;21267;51.032;6.998;2024-03-23T06:53:26;5.53;;;2.50;;
35084;SDS011;21267;51.032;6.998;2024-03-23T06:55:52;12.93;;;5.80;;
35084;SDS011;21267;51.032;6.998;2024-03-23T06:58:22;13.93;;;4.05;;
35084;SDS011;21267;51.032;6.998;2024-03-23T07:00:48;12.88;;;3.88;;
35084;SDS011;21267;51.032;6.998;2024-03-23T07:03:14;17.98;;;3.92;;
35084;SDS011;21267;51.032;6.998;2024-03-23T07:05:40;13.38;;;4.30;;
35084;SDS011;21267;51.032;6.998;2024-03-23T07:08:06;9.80;;;3.78;;
35084;SDS011;21267;51.032;6.998;2024-03-23T07:10:32;11.45;;;2.75;;
35084;SDS011;21267;51.032;6.998;2024-03-23T07:12:58;15.75;;;4.80;;
35084;SDS011;21267;51.032;6.998;2024-03-23T07:15:24;10.50;;;3.17;;
35084;SDS011;21267;51.032;6.998;2024-03-23T07:17:49;10.68;;;4.03;;
35084;SDS011;21267;51.032;6.998;2024-03-23T07:20:15;12.43;;;4.57;;
35084;SDS011;21267;51.032;6.998;2024-03-23T07:22:49;11.85;;;4.13;;
35084;SDS011;21267;51.032;6.998;2024-03-23T07:25:14;13.63;;;5.10;;
35084;SDS011;21267;51.032;6.998;2024-03-23T07:27:40;17.67;;;5.45;;
35084;SDS011;21267;51.032;6.998;2024-03-23T07:32:33;10.77;;;4.15;;
35084;SDS011;21267;51.032;6.998;2024-03-23T07:35:26;8.55;;;4.25;;
35084;SDS011;21267;51.032;6.998;2024-03-23T07:37:52;15.85;;;4.40;;
35084;SDS011;21267;51.032;6.998;2024-03-23T07:40:17;15.77;;;5.50;;
35084;SDS011;21267;51.032;6.998;2024-03-23T07:42:58;7.22;;;2.45;;
35084;SDS011;21267;51.032;6.998;2024-03-23T07:45:23;13.93;;;4.72;;
35084;SDS011;21267;51.032;6.998;2024-03-23T07:50:37;4.95;;;2.88;;
35084;SDS011;21267;51.032;6.998;2024-03-23T07:53:24;14.70;;;5.90;;
35084;SDS011;21267;51.032;6.998;2024-03-23T07:56:08;11.25;;;3.83;;
35084;SDS011;21267;51.032;6.998;2024-03-23T07:58:38;7.28;;;2.40;;
35084;SDS011;21267;51.032;6.998;2024-03-23T08:01:04;11.52;;;5.78;;
35084;SDS011;21267;51.032;6.998;2024-03-23T08:03:34;11.35;;;5.70;;
35084;SDS011;21267;51.032;6.998;2024-03-23T08:06:10;7.63;;;3.42;;
35084;SDS011;21267;51.032;6.998;2024-03-23T08:08:38;16.67;;;5.13;;
35084;SDS011;21267;51.032;6.998;2024-03-23T08:11:04;11.80;;;5.25;;
35084;SDS011;21267;51.032;6.998;2024-03-23T08:13:30;13.63;;;5.57;;
35084;SDS011;21267;51.032;6.998;2024-03-23T08:15:56;11.48;;;4.97;;
35084;SDS011;21267;51.032;6.998;2024-03-23T08:18:26;6.57;;;4.20;;
35084;SDS011;21267;51.032;6.998;2024-03-23T08:20:55;12.00;;;4.85;;
35084;SDS011;21267;51.032;6.998;2024-03-23T08:26:32;8.57;;;4.60;;
35084;SDS011;21267;51.032;6.998;2024-03-23T08:28:51;8.55;;;4.80;;
35084;SDS011;21267;51.032;6.998;2024-03-23T08:31:31;6.57;;;2.65;;
35084;SDS011;21267;51.032;6.998;2024-03-23T08:33:57;11.30;;;3.17;;
35084;SDS011;21267;51.032;6.998;2024-03-23T08:36:23;7.43;;;3.72;;
35084;SDS011;21267;51.032;6.998;2024-03-23T08:39:04;3.92;;;1.75;;
35084;SDS011;21267;51.032;6.998;2024-03-23T08:41:29;6.95;;;2.45;;
35084;SDS011;21267;51.032;6.998;2024-03-23T08:43:55;14.55;;;2.78;;
35084;SDS011;21267;51.032;6.998;2024-03-23T08:46:25;10.57;;;3.40;;
35084;SDS011;21267;51.032;6.998;2024-03-23T08:48:51;11.35;;;3.47;;
35084;SDS011;21267;51.032;6.998;2024-03-23T08:51:18;7.17;;;2.47;;
35084;SDS011;21267;51.032;6.998;2024-03-23T08:53:58;6.50;;;1.88;;
35084;SDS011;21267;51.032;6.998;2024-03-23T08:56:24;3.97;;;1.88;;
35084;SDS011;21267;51.032;6.998;2024-03-23T08:58:49;11.18;;;2.17;;
35084;SDS011;21267;51.032;6.998;2024-03-23T09:01:15;5.53;;;1.90;;
35084;SDS011;21267;51.032;6.998;2024-03-23T09:03:41;7.28;;;2.08;;
35084;SDS011;21267;51.032;6.998;2024-03-23T09:06:11;6.60;;;2.60;;
35084;SDS011;21267;51.032;6.998;2024-03-23T09:08:37;5.05;;;2.38;;
35084;SDS011;21267;51.032;6.998;2024-03-23T09:11:08;9.00;;;3.03;;
35084;SDS011;21267;51.032;6.998;2024-03-23T09:13:52;6.70;;;2.28;;
35084;SDS011;21267;51.032;6.998;2024-03-23T09:16:22;7.57;;;3.20;;
35084;SDS011;21267;51.032;6.998;2024-03-23T09:19:08;8.82;;;3.83;;
35084;SDS011;21267;51.032;6.998;2024-03-23T09:21:34;8.20;;;3.45;;
35084;SDS011;21267;51.032;6.998;2024-03-23T09:24:14;8.95;;;3.10;;
35084;SDS011;21267;51.032;6.998;2024-03-23T09:26:39;8.23;;;2.40;;
35084;SDS011;21267;51.032;6.998;2024-03-23T09:29:05;7.97;;;3.03;;
35084;SDS011;21267;51.032;6.998;2024-03-23T09:31:45;2.85;;;2.28;;
35084;SDS011;21267;51.032;6.998;2024-03-23T09:34:11;6.00;;;3.00;;
35084;SDS011;21267;51.032;6.998;2024-03-23T09:36:36;5.30;;;2.00;;
35084;SDS011;21267;51.032;6.998;2024-03-23T09:39:02;4.03;;;1.63;;
35084;SDS011;21267;51.032;6.998;2024-03-23T09:41:29;6.10;;;1.90;;
35084;SDS011;21267;51.032;6.998;2024-03-23T09:43:54;5.55;;;2.28;;
35084;SDS011;21267;51.032;6.998;2024-03-23T09:46:20;6.13;;;1.70;;
35084;SDS011;21267;51.032;6.998;2024-03-23T09:48:48;4.65;;;2.47;;
35084;SDS011;21267;51.032;6.998;2024-03-23T09:51:14;4.00;;;1.30;;
35084;SDS011;21267;51.032;6.998;2024-03-23T09:53:54;4.72;;;1.65;;
35084;SDS011;21267;51.032;6.998;2024-03-23T09:56:20;5.82;;;1.92;;
35084;SDS011;21267;51.032;6.998;2024-03-23T09:59:03;6.35;;;1.80;;
35084;SDS011;21267;51.032;6.998;2024-03-23T10:01:51;5.15;;;2.15;;
35084;SDS011;21267;51.032;6.998;2024-03-23T10:04:41;3.90;;;0.80;;
35084;SDS011;21267;51.032;6.998;2024-03-23T10:07:23;4.70;;;1.10;;
35084;SDS011;21267;51.032;6.998;2024-03-23T10:09:49;5.45;;;1.35;;
35084;SDS011;21267;51.032;6.998;2024-03-23T10:12:18;1.80;;;0.68;;
35084;SDS011;21267;51.032;6.998;2024-03-23T10:14:52;5.60;;;1.27;;
35084;SDS011;21267;51.032;6.998;2024-03-23T10:17:18;5.00;;;1.25;;
35084;SDS011;21267;51.032;6.998;2024-03-23T10:22:26;7.88;;;1.13;;
35084;SDS011;21267;51.032;6.998;2024-03-23T10:24:51;7.18;;;1.55;;
35084;SDS011;21267;51.032;6.998;2024-03-23T10:27:32;2.25;;;0.95;;
35084;SDS011;21267;51.032;6.998;2024-03-23T10:29:59;11.27;;;1.98;;
35084;SDS011;21267;51.032;6.998;2024-03-23T10:32:48;2.83;;;1.02;;
35084;SDS011;21267;51.032;6.998;2024-03-23T10:35:21;4.95;;;1.13;;
35084;SDS011;21267;51.032;6.998;2024-03-23T10:37:47;1.65;;;0.73;;
35084;SDS011;21267;51.032;6.998;2024-03-23T10:40:16;6.13;;;1.00;;
35084;SDS011;21267;51.032;6.998;2024-03-23T10:42:43;5.03;;;0.88;;
35084;SDS011;21267;51.032;6.998;2024-03-23T10:45:09;1.88;;;0.65;;
35084;SDS011;21267;51.032;6.998;2024-03-23T10:47:36;2.67;;;0.73;;
35084;SDS011;21267;51.032;6.998;2024-03-23T10:50:05;1.58;;;1.02;;
35084;SDS011;21267;51.032;6.998;2024-03-23T10:52:32;2.97;;;0.50;;
35084;SDS011;21267;51.032;6.998;2024-03-23T10:55:14;1.77;;;0.40;;
35084;SDS011;21267;51.032;6.998;2024-03-23T11:00:14;1.35;;;0.30;;
35084;SDS011;21267;51.032;6.998;2024-03-23T11:02:41;1.13;;;0.40;;
35084;SDS011;21267;51.032;6.998;2024-03-23T11:07:51;3.30;;;0.88;;
35084;SDS011;21267;51.032;6.998;2024-03-23T11:10:24;3.67;;;1.30;;
35084;SDS011;21267;51.032;6.998;2024-03-23T11:12:55;3.08;;;1.00;;
35084;SDS011;21267;51.032;6.998;2024-03-23T11:15:23;3.55;;;1.08;;
35084;SDS011;21267;51.032;6.998;2024-03-23T11:18:02;2.88;;;1.35;;
35084;SDS011;21267;51.032;6.998;2024-03-23T11:20:33;0.88;;;0.70;;
35084;SDS011;21267;51.032;6.998;2024-03-23T11:22:59;1.77;;;0.82;;
35084;SDS011;21267;51.032;6.998;2024-03-23T11:25:32;3.30;;;0.50;;
35084;SDS011;21267;51.032;6.998;2024-03-23T11:28:10;1.58;;;0.38;;
35084;SDS011;21267;51.032;6.998;2024-03-23T11:30:51;1.63;;;0.65;;
35084;SDS011;21267;51.032;6.998;2024-03-23T11:33:18;0.50;;;0.20;;
35084;SDS011;21267;51.032;6.998;2024-03-23T11:35:44;0.73;;;0.20;;
35084;SDS011;21267;51.032;6.998;2024-03-23T11:38:16;1.20;;;0.50;;
35084;SDS011;21267;51.032;6.998;2024-03-23T11:40:46;1.85;;;0.75;;
35084;SDS011;21267;51.032;6.998;2024-03-23T11:43:16;1.67;;;0.45;;
35084;SDS011;21267;51.032;6.998;2024-03-23T11:45:48;1.05;;;0.32;;
35084;SDS011;21267;51.032;6.998;2024-03-23T11:48:21;2.50;;;0.60;;
35084;SDS011;21267;51.032;6.998;2024-03-23T11:50:48;1.08;;;0.20;;
35084;SDS011;21267;51.032;6.998;2024-03-23T11:53:16;1.83;;;0.32;;
35084;SDS011;21267;51.032;6.998;2024-03-23T11:55:55;2.75;;;0.63;;
35084;SDS011;21267;51.032;6.998;2024-03-23T11:58:23;2.50;;;1.10;;
35084;SDS011;21267;51.032;6.998;2024-03-23T12:00:55;3.83;;;0.82;;
35084;SDS011;21267;51.032;6.998;2024-03-23T12:03:37;2.45;;;0.70;;
35084;SDS011;21267;51.032;6.998;2024-03-23T12:06:03;1.92;;;0.70;;
35084;SDS011;21267;51.032;6.998;2024-03-23T12:08:45;3.35;;;1.20;;
35084;SDS011;21267;51.032;6.998;2024-03-23T12:11:12;2.22;;;0.80;;
35084;SDS011;21267;51.032;6.998;2024-03-23T12:13:40;5.50;;;0.77;;
35084;SDS011;21267;51.032;6.998;2024-03-23T12:16:12;2.50;;;0.65;;
35084;SDS011;21267;51.032;6.998;2024-03-23T12:18:48;3.80;;;1.05;;
35084;SDS011;21267;51.032;6.998;2024-03-23T12:21:15;3.97;;;1.50;;
35084;SDS011;21267;51.032;6.998;2024-03-23T12:23:42;2.75;;;0.63;;
35084;SDS011;21267;51.032;6.998;2024-03-23T12:26:10;0.10;;;0.10;;
35084;SDS011;21267;51.032;6.998;2024-03-23T12:28:37;0.28;;;0.10;;
35084;SDS011;21267;51.032;6.998;2024-03-23T12:31:03;0.45;;;0.30;;
35084;SDS011;21267;51.032;6.998;2024-03-23T12:33:29;1.48;;;0.40;;
35084;SDS011;21267;51.032;6.998;2024-03-23T12:36:02;2.65;;;0.40;;
35084;SDS011;21267;51.032;6.998;2024-03-23T12:38:27;0.63;;;0.30;;
35084;SDS011;21267;51.032;6.998;2024-03-23T12:40:53;0.20;;;0.20;;
35084;SDS011;21267;51.032;6.998;2024-03-23T12:43:18;1.08;;;0.45;;
35084;SDS011;21267;51.032;6.998;2024-03-23T12:45:48;0.10;;;0.10;;
35084;SDS011;21267;51.032;6.998;2024-03-23T12:48:14;0.13;;;0.13;;
35084;SDS011;21267;51.032;6.998;2024-03-23T12:50:39;0.40;;;0.22;;
35084;SDS011;21267;51.032;6.998;2024-03-23T12:53:05;1.10;;;0.22;;
35084;SDS011;21267;51.032;6.998;2024-03-23T12:55:38;1.02;;;0.40;;
35084;SDS011;21267;51.032;6.998;2024-03-23T12:58:04;2.33;;;0.52;;
35084;SDS011;21267;51.032;6.998;2024-03-23T13:00:30;3.75;;;0.50;;
35084;SDS011;21267;51.032;6.998;2024-03-23T13:02:55;2.33;;;0.50;;
35084;SDS011;21267;51.032;6.998;2024-03-23T13:05:21;1.83;;;0.63;;
35084;SDS011;21267;51.032;6.998;2024-03-23T13:07:46;0.68;;;0.40;;
35084;SDS011;21267;51.032;6.998;2024-03-23T13:10:12;0.60;;;0.20;;
35084;SDS011;21267;51.032;6.998;2024-03-23T13:12:39;3.30;;;0.52;;
35084;SDS011;21267;51.032;6.998;2024-03-23T13:15:05;2.05;;;0.30;;
35084;SDS011;21267;51.032;6.998;2024-03-23T13:17:32;1.20;;;0.60;;
35084;SDS011;21267;51.032;6.998;2024-03-23T13:20:12;2.53;;;0.65;;
35084;SDS011;21267;51.032;6.998;2024-03-23T13:22:40;2.47;;;0.75;;
35084;SDS011;21267;51.032;6.998;2024-03-23T13:25:20;0.70;;;0.30;;
35084;SDS011;21267;51.032;6.998;2024-03-23T13:27:46;4.15;;;0.88;;
35084;SDS011;21267;51.032;6.998;2024-03-23T13:30:13;1.83;;;0.95;;
35084;SDS011;21267;51.032;6.998;2024-03-23T13:32:45;2.83;;;0.43;;
35084;SDS011;21267;51.032;6.998;2024-03-23T13:35:10;2.72;;;0.60;;
35084;SDS011;21267;51.032;6.998;2024-03-23T13:37:36;1.92;;;0.40;;
35084;SDS011;21267;51.032;6.998;2024-03-23T13:40:19;3.63;;;1.13;;
35084;SDS011;21267;51.032;6.998;2024-03-23T13:42:45;3.63;;;0.80;;
35084;SDS011;21267;51.032;6.998;2024-03-23T13:45:11;2.67;;;0.82;;
35084;SDS011;21267;51.032;6.998;2024-03-23T13:47:43;1.08;;;0.40;;
35084;SDS011;21267;51.032;6.998;2024-03-23T13:50:09;3.95;;;0.82;;
35084;SDS011;21267;51.032;6.998;2024-03-23T13:52:34;1.98;;;0.88;;
35084;SDS011;21267;51.032;6.998;2024-03-23T13:55:00;2.20;;;1.17;;
35084;SDS011;21267;51.032;6.998;2024-03-23T13:57:25;3.15;;;0.80;;
35084;SDS011;21267;51.032;6.998;2024-03-23T13:59:51;2.30;;;1.17;;
35084;SDS011;21267;51.032;6.998;2024-03-23T14:02:16;3.00;;;1.25;;
35084;SDS011;21267;51.032;6.998;2024-03-23T14:04:42;6.53;;;1.20;;
35084;SDS011;21267;51.032;6.998;2024-03-23T14:07:07;2.92;;;0.47;;
35084;SDS011;21267;51.032;6.998;2024-03-23T14:09:34;2.75;;;0.60;;
35084;SDS011;21267;51.032;6.998;2024-03-23T14:12:00;1.27;;;0.30;;
35084;SDS011;21267;51.032;6.998;2024-03-23T14:14:25;0.43;;;0.20;;
35084;SDS011;21267;51.032;6.998;2024-03-23T14:16:51;0.50;;;0.20;;
35084;SDS011;21267;51.032;6.998;2024-03-23T14:19:31;1.17;;;0.45;;
35084;SDS011;21267;51.032;6.998;2024-03-23T14:21:57;2.08;;;0.68;;
35084;SDS011;21267;51.032;6.998;2024-03-23T14:24:23;1.25;;;0.47;;
35084;SDS011;21267;51.032;6.998;2024-03-23T14:27:04;2.95;;;0.85;;
35084;SDS011;21267;51.032;6.998;2024-03-23T14:29:33;2.33;;;0.75;;
35084;SDS011;21267;51.032;6.998;2024-03-23T14:32:14;4.35;;;0.90;;
35084;SDS011;21267;51.032;6.998;2024-03-23T14:34:41;2.00;;;0.57;;
35084;SDS011;21267;51.032;6.998;2024-03-23T14:37:23;2.65;;;0.90;;
35084;SDS011;21267;51.032;6.998;2024-03-23T14:39:48;2.27;;;0.60;;
35084;SDS011;21267;51.032;6.998;2024-03-23T14:42:14;3.03;;;0.63;;
35084;SDS011;21267;51.032;6.998;2024-03-23T14:44:39;3.55;;;1.27;;
35084;SDS011;21267;51.032;6.998;2024-03-23T14:47:05;1.33;;;0.60;;
35084;SDS011;21267;51.032;6.998;2024-03-23T14:49:31;2.00;;;0.60;;
35084;SDS011;21267;51.032;6.998;2024-03-23T14:51:57;0.68;;;0.47;;
35084;SDS011;21267;51.032;6.998;2024-03-23T14:54:39;3.65;;;0.85;;
35084;SDS011;21267;51.032;6.998;2024-03-23T14:57:05;1.33;;;0.60;;
35084;SDS011;21267;51.032;6.998;2024-03-23T14:59:49;1.85;;;0.40;;
35084;SDS011;21267;51.032;6.998;2024-03-23T15:02:17;4.20;;;1.05;;
35084;SDS011;21267;51.032;6.998;2024-03-23T15:04:43;0.82;;;0.50;;
35084;SDS011;21267;51.032;6.998;2024-03-23T15:07:13;0.88;;;0.50;;
35084;SDS011;21267;51.032;6.998;2024-03-23T15:09:39;3.33;;;0.98;;
35084;SDS011;21267;51.032;6.998;2024-03-23T15:12:04;1.42;;;0.75;;
35084;SDS011;21267;51.032;6.998;2024-03-23T15:14:30;2.55;;;0.22;;
35084;SDS011;21267;51.032;6.998;2024-03-23T15:17:00;0.82;;;0.43;;
35084;SDS011;21267;51.032;6.998;2024-03-23T15:19:29;3.33;;;0.95;;
35084;SDS011;21267;51.032;6.998;2024-03-23T15:21:55;2.00;;;0.63;;
35084;SDS011;21267;51.032;6.998;2024-03-23T15:24:21;1.85;;;0.90;;
35084;SDS011;21267;51.032;6.998;2024-03-23T15:26:47;2.88;;;0.90;;
35084;SDS011;21267;51.032;6.998;2024-03-23T15:29:15;0.90;;;0.65;;
35084;SDS011;21267;51.032;6.998;2024-03-23T15:31:42;3.00;;;1.02;;
35084;SDS011;21267;51.032;6.998;2024-03-23T15:34:08;1.27;;;0.80;;
35084;SDS011;21267;51.032;6.998;2024-03-23T15:36:37;1.30;;;0.70;;
35084;SDS011;21267;51.032;6.998;2024-03-23T15:39:07;0.70;;;0.50;;
35084;SDS011;21267;51.032;6.998;2024-03-23T15:41:33;1.58;;;1.02;;
35084;SDS011;21267;51.032;6.998;2024-03-23T15:44:01;3.53;;;0.75;;
35084;SDS011;21267;51.032;6.998;2024-03-23T15:46:27;5.15;;;1.00;;
35084;SDS011;21267;51.032;6.998;2024-03-23T15:48:52;1.88;;;0.77;;
35084;SDS011;21267;51.032;6.998;2024-03-23T15:51:20;5.35;;;1.30;;
35084;SDS011;21267;51.032;6.998;2024-03-23T15:53:46;2.17;;;0.63;;
35084;SDS011;21267;51.032;6.998;2024-03-23T15:56:12;3.22;;;1.27;;
35084;SDS011;21267;51.032;6.998;2024-03-23T15:58:39;0.93;;;0.50;;
35084;SDS011;21267;51.032;6.998;2024-03-23T16:01:05;1.52;;;0.90;;
35084;SDS011;21267;51.032;6.998;2024-03-23T16:03:36;3.13;;;1.50;;
35084;SDS011;21267;51.032;6.998;2024-03-23T16:06:04;3.60;;;0.65;;
35084;SDS011;21267;51.032;6.998;2024-03-23T16:08:30;2.00;;;0.90;;
35084;SDS011;21267;51.032;6.998;2024-03-23T16:13:34;2.17;;;1.13;;
35084;SDS011;21267;51.032;6.998;2024-03-23T16:16:03;3.03;;;1.23;;